sensor_id;sensor_type;location;lat;lon;timestamp;pressure;altitude;pressure_sealevel;temperature;humidity
61119;BME280;51448;51.660;5.824;2023-02-28T00:01:28;102995.66;;;-0.24;82.13
61119;BME280;51448;51.660;5.824;2023-02-28T00:03:57;103003.34;;;-0.26;81.82
61119;BME280;51448;51.660;5.824;2023-02-28T00:06:25;103002.44;;;-0.26;82.06
61119;BME280;51448;51.660;5.824;2023-02-28T00:08:54;103006.66;;;-0.28;82.18
61119;BME280;51448;51.660;5.824;2023-02-28T00:11:22;103007.44;;;-0.29;82.30
61119;BME280;51448;51.660;5.824;2023-02-28T00:13:50;103005.59;;;-0.32;82.26
61119;BME280;51448;51.660;5.824;2023-02-28T00:16:20;103002.13;;;-0.32;82.47
61119;BME280;51448;51.660;5.824;2023-02-28T00:18:49;103002.94;;;-0.33;82.33
61119;BME280;51448;51.660;5.824;2023-02-28T00:21:18;102997.72;;;-0.35;82.43
61119;BME280;51448;51.660;5.824;2023-02-28T00:23:47;102993.41;;;-0.34;83.16
61119;BME280;51448;51.660;5.824;2023-02-28T00:26:15;102993.50;;;-0.33;82.93
61119;BME280;51448;51.660;5.824;2023-02-28T00:28:45;102995.91;;;-0.36;82.66
61119;BME280;51448;51.660;5.824;2023-02-28T00:31:13;102992.28;;;-0.39;82.86
61119;BME280;51448;51.660;5.824;2023-02-28T00:33:40;102990.59;;;-0.39;83.08
61119;BME280;51448;51.660;5.824;2023-02-28T00:36:10;102990.50;;;-0.41;82.80
61119;BME280;51448;51.660;5.824;2023-02-28T00:38:39;102990.44;;;-0.42;83.16
61119;BME280;51448;51.660;5.824;2023-02-28T00:41:08;102986.06;;;-0.43;82.99
61119;BME280;51448;51.660;5.824;2023-02-28T00:43:37;102981.69;;;-0.44;83.24
61119;BME280;51448;51.660;5.824;2023-02-28T00:46:06;102991.16;;;-0.45;83.44
61119;BME280;51448;51.660;5.824;2023-02-28T00:48:35;102988.56;;;-0.45;83.08
61119;BME280;51448;51.660;5.824;2023-02-28T00:51:03;102988.56;;;-0.45;83.19
61119;BME280;51448;51.660;5.824;2023-02-28T00:53:31;102982.53;;;-0.45;83.31
61119;BME280;51448;51.660;5.824;2023-02-28T00:55:59;102982.53;;;-0.45;83.53
61119;BME280;51448;51.660;5.824;2023-02-28T00:58:27;102990.19;;;-0.47;83.41
61119;BME280;51448;51.660;5.824;2023-02-28T01:00:55;102996.34;;;-0.45;83.29
61119;BME280;51448;51.660;5.824;2023-02-28T01:03:23;102999.72;;;-0.46;83.25
61119;BME280;51448;51.660;5.824;2023-02-28T01:05:51;103006.50;;;-0.48;83.24
61119;BME280;51448;51.660;5.824;2023-02-28T01:08:20;103002.16;;;-0.49;83.17
61119;BME280;51448;51.660;5.824;2023-02-28T01:10:48;103007.22;;;-0.50;83.62
61119;BME280;51448;51.660;5.824;2023-02-28T01:13:15;103014.91;;;-0.52;83.11
61119;BME280;51448;51.660;5.824;2023-02-28T01:15:49;103009.72;;;-0.52;83.58
61119;BME280;51448;51.660;5.824;2023-02-28T01:18:19;103013.06;;;-0.54;83.58
61119;BME280;51448;51.660;5.824;2023-02-28T01:20:48;103014.84;;;-0.53;83.80
61119;BME280;51448;51.660;5.824;2023-02-28T01:23:16;103015.63;;;-0.54;83.93
61119;BME280;51448;51.660;5.824;2023-02-28T01:25:43;103013.06;;;-0.54;83.79
61119;BME280;51448;51.660;5.824;2023-02-28T01:28:11;103019.19;;;-0.52;83.75
61119;BME280;51448;51.660;5.824;2023-02-28T01:30:39;103016.59;;;-0.52;83.49
61119;BME280;51448;51.660;5.824;2023-02-28T01:33:06;103010.56;;;-0.53;83.60
61119;BME280;51448;51.660;5.824;2023-02-28T01:35:35;103007.09;;;-0.53;83.38
61119;BME280;51448;51.660;5.824;2023-02-28T01:38:03;103001.84;;;-0.55;83.48
61119;BME280;51448;51.660;5.824;2023-02-28T01:40:48;103000.78;;;-0.58;83.56
61119;BME280;51448;51.660;5.824;2023-02-28T01:43:27;102996.50;;;-0.58;83.70
61119;BME280;51448;51.660;5.824;2023-02-28T01:45:58;103001.50;;;-0.61;83.65
61119;BME280;51448;51.660;5.824;2023-02-28T01:48:31;102999.72;;;-0.62;83.59
61119;BME280;51448;51.660;5.824;2023-02-28T01:51:06;102995.38;;;-0.63;84.15
61119;BME280;51448;51.660;5.824;2023-02-28T01:53:48;102993.59;;;-0.64;83.92
61119;BME280;51448;51.660;5.824;2023-02-28T01:56:24;102990.84;;;-0.67;83.81
61119;BME280;51448;51.660;5.824;2023-02-28T01:58:55;102986.41;;;-0.70;83.90
61119;BME280;51448;51.660;5.824;2023-02-28T02:01:26;102991.59;;;-0.70;83.83
61119;BME280;51448;51.660;5.824;2023-02-28T02:03:58;102988.09;;;-0.70;84.01
61119;BME280;51448;51.660;5.824;2023-02-28T02:06:40;102995.84;;;-0.70;84.11
61119;BME280;51448;51.660;5.824;2023-02-28T02:09:11;102992.28;;;-0.72;84.09
61119;BME280;51448;51.660;5.824;2023-02-28T02:11:41;102986.34;;;-0.71;84.49
61119;BME280;51448;51.660;5.824;2023-02-28T02:17:12;102988.34;;;-0.66;84.79
61119;BME280;51448;51.660;5.824;2023-02-28T02:26:02;102979.44;;;-0.54;85.21
61119;BME280;51448;51.660;5.824;2023-02-28T02:35:22;102979.28;;;-0.41;85.28
61119;BME280;51448;51.660;5.824;2023-02-28T02:38:04;102970.16;;;-0.34;85.26
61119;BME280;51448;51.660;5.824;2023-02-28T02:40:57;102978.22;;;-0.28;85.67
61119;BME280;51448;51.660;5.824;2023-02-28T02:43:35;102980.13;;;-0.24;85.60
61119;BME280;51448;51.660;5.824;2023-02-28T02:46:19;102976.91;;;-0.20;85.44
61119;BME280;51448;51.660;5.824;2023-02-28T02:48:55;102974.31;;;-0.20;85.89
61119;BME280;51448;51.660;5.824;2023-02-28T02:51:27;102973.50;;;-0.19;85.67
61119;BME280;51448;51.660;5.824;2023-02-28T02:54:08;102968.47;;;-0.16;85.88
61119;BME280;51448;51.660;5.824;2023-02-28T02:56:44;102977.13;;;-0.15;85.89
61119;BME280;51448;51.660;5.824;2023-02-28T02:59:21;102981.72;;;-0.10;85.86
61119;BME280;51448;51.660;5.824;2023-02-28T03:02:01;102981.88;;;-0.07;85.67
61119;BME280;51448;51.660;5.824;2023-02-28T03:04:40;102978.47;;;-0.06;85.89
61119;BME280;51448;51.660;5.824;2023-02-28T03:07:10;102977.59;;;-0.06;85.79
61119;BME280;51448;51.660;5.824;2023-02-28T03:09:39;102970.81;;;-0.04;85.69
61119;BME280;51448;51.660;5.824;2023-02-28T03:12:11;102976.03;;;-0.03;86.28
61119;BME280;51448;51.660;5.824;2023-02-28T03:17:36;102975.06;;;-0.05;86.08
61119;BME280;51448;51.660;5.824;2023-02-28T03:20:33;102964.88;;;-0.02;86.19
61119;BME280;51448;51.660;5.824;2023-02-28T03:23:23;102983.97;;;0.01;86.54
61119;BME280;51448;51.660;5.824;2023-02-28T03:26:16;102984.09;;;0.04;86.11
61119;BME280;51448;51.660;5.824;2023-02-28T03:31:58;102976.63;;;0.10;86.15
61119;BME280;51448;51.660;5.824;2023-02-28T03:34:39;102974.13;;;0.11;86.18
61119;BME280;51448;51.660;5.824;2023-02-28T03:37:20;102976.81;;;0.13;86.53
61119;BME280;51448;51.660;5.824;2023-02-28T03:40:01;102981.22;;;0.15;86.49
61119;BME280;51448;51.660;5.824;2023-02-28T03:42:37;102984.69;;;0.16;86.21
61119;BME280;51448;51.660;5.824;2023-02-28T03:45:11;102978.06;;;0.21;85.92
61119;BME280;51448;51.660;5.824;2023-02-28T03:47:49;102981.75;;;0.26;85.98
61119;BME280;51448;51.660;5.824;2023-02-28T03:50:25;102981.91;;;0.29;85.89
61119;BME280;51448;51.660;5.824;2023-02-28T03:53:01;102975.13;;;0.31;85.99
61119;BME280;51448;51.660;5.824;2023-02-28T03:55:42;102968.31;;;0.33;85.96
61119;BME280;51448;51.660;5.824;2023-02-28T03:58:22;102970.06;;;0.34;86.06
61119;BME280;51448;51.660;5.824;2023-02-28T04:01:00;102959.78;;;0.36;85.85
61119;BME280;51448;51.660;5.824;2023-02-28T04:03:36;102965.84;;;0.36;85.96
61119;BME280;51448;51.660;5.824;2023-02-28T04:06:07;102963.25;;;0.36;85.80
61119;BME280;51448;51.660;5.824;2023-02-28T04:08:41;102963.25;;;0.36;85.82
61119;BME280;51448;51.660;5.824;2023-02-28T04:14:04;102964.38;;;0.42;85.60
61119;BME280;51448;51.660;5.824;2023-02-28T04:16:35;102957.56;;;0.44;85.76
61119;BME280;51448;51.660;5.824;2023-02-28T04:19:06;102961.13;;;0.46;85.38
61119;BME280;51448;51.660;5.824;2023-02-28T04:21:41;102961.22;;;0.47;85.05
61119;BME280;51448;51.660;5.824;2023-02-28T04:24:14;102962.97;;;0.48;85.02
61119;BME280;51448;51.660;5.824;2023-02-28T04:26:46;102963.84;;;0.49;85.27
61119;BME280;51448;51.660;5.824;2023-02-28T04:29:22;102967.41;;;0.51;85.07
61119;BME280;51448;51.660;5.824;2023-02-28T04:31:52;102970.94;;;0.53;84.59
61119;BME280;51448;51.660;5.824;2023-02-28T04:34:21;102977.09;;;0.55;84.45
61119;BME280;51448;51.660;5.824;2023-02-28T04:36:49;102972.16;;;0.59;84.38
61119;BME280;51448;51.660;5.824;2023-02-28T04:39:36;102969.59;;;0.61;84.09
61119;BME280;51448;51.660;5.824;2023-02-28T04:42:04;102968.81;;;0.62;84.26
61119;BME280;51448;51.660;5.824;2023-02-28T04:44:32;102975.75;;;0.63;84.39
61119;BME280;51448;51.660;5.824;2023-02-28T04:46:59;102974.88;;;0.63;84.38
61119;BME280;51448;51.660;5.824;2023-02-28T04:49:27;102976.69;;;0.65;84.59
61119;BME280;51448;51.660;5.824;2023-02-28T04:51:55;102974.13;;;0.65;83.80
61119;BME280;51448;51.660;5.824;2023-02-28T04:54:22;102970.66;;;0.65;83.93
61119;BME280;51448;51.660;5.824;2023-02-28T04:56:50;102982.78;;;0.66;83.85
61119;BME280;51448;51.660;5.824;2023-02-28T04:59:17;102981.00;;;0.65;83.88
61119;BME280;51448;51.660;5.824;2023-02-28T05:01:47;102980.13;;;0.64;83.96
61119;BME280;51448;51.660;5.824;2023-02-28T05:04:16;102979.25;;;0.64;83.80
61119;BME280;51448;51.660;5.824;2023-02-28T05:06:44;102981.88;;;0.65;84.04
61119;BME280;51448;51.660;5.824;2023-02-28T05:09:12;102985.38;;;0.66;83.49
61119;BME280;51448;51.660;5.824;2023-02-28T05:11:40;102991.44;;;0.66;83.76
61119;BME280;51448;51.660;5.824;2023-02-28T05:14:13;102987.16;;;0.67;83.80
61119;BME280;51448;51.660;5.824;2023-02-28T05:17:05;102987.06;;;0.65;83.80
61119;BME280;51448;51.660;5.824;2023-02-28T05:19:38;102991.22;;;0.62;83.48
61119;BME280;51448;51.660;5.824;2023-02-28T05:22:13;102990.47;;;0.64;83.86
61119;BME280;51448;51.660;5.824;2023-02-28T05:24:43;102995.66;;;0.64;83.78
61119;BME280;51448;51.660;5.824;2023-02-28T05:27:11;102990.47;;;0.64;83.43
61119;BME280;51448;51.660;5.824;2023-02-28T05:29:39;102999.22;;;0.66;83.80
61119;BME280;51448;51.660;5.824;2023-02-28T05:32:12;102999.28;;;0.68;83.73
61119;BME280;51448;51.660;5.824;2023-02-28T05:34:41;103004.53;;;0.69;83.33
61119;BME280;51448;51.660;5.824;2023-02-28T05:37:12;103003.72;;;0.70;83.57
61119;BME280;51448;51.660;5.824;2023-02-28T05:39:40;103001.94;;;0.69;82.99
61119;BME280;51448;51.660;5.824;2023-02-28T05:42:08;103008.06;;;0.71;83.14
61119;BME280;51448;51.660;5.824;2023-02-28T05:44:36;103009.69;;;0.69;82.88
61119;BME280;51448;51.660;5.824;2023-02-28T05:47:04;103007.94;;;0.68;82.99
61119;BME280;51448;51.660;5.824;2023-02-28T05:49:32;103007.06;;;0.68;82.68
61119;BME280;51448;51.660;5.824;2023-02-28T05:52:00;103011.34;;;0.67;82.89
61119;BME280;51448;51.660;5.824;2023-02-28T05:54:27;103009.66;;;0.68;83.07
61119;BME280;51448;51.660;5.824;2023-02-28T05:56:55;103013.13;;;0.68;82.97
61119;BME280;51448;51.660;5.824;2023-02-28T05:59:22;103018.31;;;0.68;83.23
61119;BME280;51448;51.660;5.824;2023-02-28T06:01:53;103008.75;;;0.67;82.87
61119;BME280;51448;51.660;5.824;2023-02-28T06:04:24;103015.63;;;0.67;83.29
61119;BME280;51448;51.660;5.824;2023-02-28T06:06:58;103014.75;;;0.66;82.62
61119;BME280;51448;51.660;5.824;2023-02-28T06:09:26;103015.56;;;0.65;82.98
61119;BME280;51448;51.660;5.824;2023-02-28T06:11:54;103018.97;;;0.64;83.11
61119;BME280;51448;51.660;5.824;2023-02-28T06:14:25;103014.59;;;0.63;82.80
61119;BME280;51448;51.660;5.824;2023-02-28T06:16:53;103018.88;;;0.63;82.91
61119;BME280;51448;51.660;5.824;2023-02-28T06:19:24;103026.66;;;0.63;83.05
61119;BME280;51448;51.660;5.824;2023-02-28T06:21:56;103022.31;;;0.62;83.11
61119;BME280;51448;51.660;5.824;2023-02-28T06:24:25;103025.78;;;0.62;83.06
61119;BME280;51448;51.660;5.824;2023-02-28T06:26:57;103027.41;;;0.60;82.91
61119;BME280;51448;51.660;5.824;2023-02-28T06:29:33;103034.31;;;0.59;83.07
61119;BME280;51448;51.660;5.824;2023-02-28T06:32:02;103031.72;;;0.59;83.32
61119;BME280;51448;51.660;5.824;2023-02-28T06:34:30;103030.78;;;0.59;83.44
61119;BME280;51448;51.660;5.824;2023-02-28T06:36:58;103032.59;;;0.60;83.11
61119;BME280;51448;51.660;5.824;2023-02-28T06:39:30;103030.88;;;0.60;83.15
61119;BME280;51448;51.660;5.824;2023-02-28T06:41:58;103024.81;;;0.60;83.40
61119;BME280;51448;51.660;5.824;2023-02-28T06:44:25;103037.84;;;0.62;83.59
61119;BME280;51448;51.660;5.824;2023-02-28T06:46:53;103041.31;;;0.62;83.04
61119;BME280;51448;51.660;5.824;2023-02-28T06:49:21;103041.31;;;0.62;83.17
61119;BME280;51448;51.660;5.824;2023-02-28T06:51:49;103043.06;;;0.63;83.00
61119;BME280;51448;51.660;5.824;2023-02-28T06:54:17;103043.06;;;0.63;82.54
61119;BME280;51448;51.660;5.824;2023-02-28T06:56:44;103050.06;;;0.64;82.92
61119;BME280;51448;51.660;5.824;2023-02-28T06:59:12;103047.47;;;0.64;82.43
61119;BME280;51448;51.660;5.824;2023-02-28T07:01:40;103044.88;;;0.64;82.32
61119;BME280;51448;51.660;5.824;2023-02-28T07:04:08;103049.31;;;0.67;82.55
61119;BME280;51448;51.660;5.824;2023-02-28T07:06:36;103051.22;;;0.71;82.46
61119;BME280;51448;51.660;5.824;2023-02-28T07:09:08;103050.66;;;0.76;82.61
61119;BME280;51448;51.660;5.824;2023-02-28T07:11:35;103050.66;;;0.76;82.55
61119;BME280;51448;51.660;5.824;2023-02-28T07:14:03;103047.38;;;0.80;82.46
61119;BME280;51448;51.660;5.824;2023-02-28T07:16:31;103049.50;;;0.89;82.36
61119;BME280;51448;51.660;5.824;2023-02-28T07:18:59;103048.03;;;0.94;81.85
61119;BME280;51448;51.660;5.824;2023-02-28T07:21:26;103053.44;;;0.99;81.76
61119;BME280;51448;51.660;5.824;2023-02-28T07:23:55;103057.78;;;1.00;81.71
61119;BME280;51448;51.660;5.824;2023-02-28T07:26:24;103059.56;;;1.01;81.49
61119;BME280;51448;51.660;5.824;2023-02-28T07:28:51;103056.16;;;1.02;81.28
61119;BME280;51448;51.660;5.824;2023-02-28T07:31:19;103059.56;;;1.01;81.44
61119;BME280;51448;51.660;5.824;2023-02-28T07:33:47;103059.69;;;1.04;81.74
61119;BME280;51448;51.660;5.824;2023-02-28T07:36:16;103071.84;;;1.05;80.99
61119;BME280;51448;51.660;5.824;2023-02-28T07:38:47;103072.66;;;1.04;80.87
61119;BME280;51448;51.660;5.824;2023-02-28T07:41:21;103070.06;;;1.04;80.98
61119;BME280;51448;51.660;5.824;2023-02-28T07:43:53;103075.34;;;1.06;80.72
61119;BME280;51448;51.660;5.824;2023-02-28T07:46:23;103076.09;;;1.03;80.36
61119;BME280;51448;51.660;5.824;2023-02-28T07:48:51;103081.09;;;1.00;80.28
61119;BME280;51448;51.660;5.824;2023-02-28T07:51:19;103074.09;;;0.97;80.17
61119;BME280;51448;51.660;5.824;2023-02-28T07:53:48;103080.00;;;0.95;79.93
61119;BME280;51448;51.660;5.824;2023-02-28T07:56:15;103076.47;;;0.93;79.74
61119;BME280;51448;51.660;5.824;2023-02-28T07:58:43;103075.88;;;0.98;79.18
61119;BME280;51448;51.660;5.824;2023-02-28T08:01:11;103077.84;;;1.04;78.88
61119;BME280;51448;51.660;5.824;2023-02-28T08:03:40;103078.13;;;1.10;77.77
61119;BME280;51448;51.660;5.824;2023-02-28T08:06:16;103082.81;;;1.17;76.62
61119;BME280;51448;51.660;5.824;2023-02-28T08:08:47;103077.69;;;1.19;77.04
61119;BME280;51448;51.660;5.824;2023-02-28T08:11:15;103087.44;;;1.25;76.47
61119;BME280;51448;51.660;5.824;2023-02-28T08:13:45;103081.56;;;1.29;75.92
61119;BME280;51448;51.660;5.824;2023-02-28T08:16:13;103085.28;;;1.34;75.05
61119;BME280;51448;51.660;5.824;2023-02-28T08:18:45;103080.22;;;1.37;74.88
61119;BME280;51448;51.660;5.824;2023-02-28T08:21:12;103080.38;;;1.40;74.48
61119;BME280;51448;51.660;5.824;2023-02-28T08:23:40;103083.09;;;1.43;73.77
61119;BME280;51448;51.660;5.824;2023-02-28T08:26:08;103077.22;;;1.47;73.20
61119;BME280;51448;51.660;5.824;2023-02-28T08:28:35;103075.69;;;1.51;73.00
61119;BME280;51448;51.660;5.824;2023-02-28T08:31:08;103072.41;;;1.55;72.85
61119;BME280;51448;51.660;5.824;2023-02-28T08:33:37;103074.22;;;1.57;72.67
61119;BME280;51448;51.660;5.824;2023-02-28T08:36:07;103069.31;;;1.64;71.71
61119;BME280;51448;51.660;5.824;2023-02-28T08:38:37;103072.16;;;1.68;71.35
61119;BME280;51448;51.660;5.824;2023-02-28T08:41:08;103080.94;;;1.72;71.17
61119;BME280;51448;51.660;5.824;2023-02-28T08:43:39;103067.34;;;1.77;71.23
61119;BME280;51448;51.660;5.824;2023-02-28T08:46:11;103082.38;;;1.85;70.86
61119;BME280;51448;51.660;5.824;2023-02-28T08:48:41;103086.13;;;1.91;69.86
61119;BME280;51448;51.660;5.824;2023-02-28T08:51:13;103091.56;;;1.97;69.82
61119;BME280;51448;51.660;5.824;2023-02-28T08:53:44;103083.09;;;2.01;69.70
61119;BME280;51448;51.660;5.824;2023-02-28T08:56:16;103086.16;;;2.12;68.16
61119;BME280;51448;51.660;5.824;2023-02-28T08:58:47;103080.28;;;2.16;68.31
61119;BME280;51448;51.660;5.824;2023-02-28T09:01:25;103082.25;;;2.22;68.97
61119;BME280;51448;51.660;5.824;2023-02-28T09:03:55;103082.75;;;2.34;68.70
61119;BME280;51448;51.660;5.824;2023-02-28T09:06:26;103082.31;;;2.45;67.38
61119;BME280;51448;51.660;5.824;2023-02-28T09:08:59;103086.06;;;2.51;66.46
61119;BME280;51448;51.660;5.824;2023-02-28T09:11:28;103078.50;;;2.57;66.14
61119;BME280;51448;51.660;5.824;2023-02-28T09:13:57;103080.59;;;2.66;65.79
61119;BME280;51448;51.660;5.824;2023-02-28T09:16:27;103082.63;;;2.73;65.40
61119;BME280;51448;51.660;5.824;2023-02-28T09:18:55;103082.88;;;2.79;64.86
61119;BME280;51448;51.660;5.824;2023-02-28T09:21:23;103078.00;;;2.87;63.80
61119;BME280;51448;51.660;5.824;2023-02-28T09:23:50;103075.56;;;2.92;64.25
61119;BME280;51448;51.660;5.824;2023-02-28T09:26:24;103072.34;;;2.99;63.68
61119;BME280;51448;51.660;5.824;2023-02-28T09:29:05;103075.25;;;3.07;64.24
61119;BME280;51448;51.660;5.824;2023-02-28T09:31:32;103080.84;;;3.16;63.83
61119;BME280;51448;51.660;5.824;2023-02-28T09:34:00;103084.66;;;3.26;61.84
61119;BME280;51448;51.660;5.824;2023-02-28T09:36:28;103076.19;;;3.31;61.57
61119;BME280;51448;51.660;5.824;2023-02-28T09:39:10;103070.22;;;3.34;61.41
61119;BME280;51448;51.660;5.824;2023-02-28T09:41:42;103073.06;;;3.40;60.93
61119;BME280;51448;51.660;5.824;2023-02-28T09:44:35;103070.75;;;3.48;61.29
61119;BME280;51448;51.660;5.824;2023-02-28T09:49:51;103069.66;;;3.65;58.79
61119;BME280;51448;51.660;5.824;2023-02-28T09:52:32;103066.34;;;3.69;57.61
61119;BME280;51448;51.660;5.824;2023-02-28T09:55:25;103073.47;;;3.75;58.30
61119;BME280;51448;51.660;5.824;2023-02-28T09:58:18;103074.75;;;3.86;58.02
61119;BME280;51448;51.660;5.824;2023-02-28T10:01:00;103075.06;;;3.95;56.02
61119;BME280;51448;51.660;5.824;2023-02-28T10:03:43;103067.44;;;4.00;54.77
61119;BME280;51448;51.660;5.824;2023-02-28T10:06:20;103062.97;;;3.97;55.17
61119;BME280;51448;51.660;5.824;2023-02-28T10:09:24;103064.97;;;4.05;56.41
61119;BME280;51448;51.660;5.824;2023-02-28T10:12:03;103062.72;;;4.15;55.13
61119;BME280;51448;51.660;5.824;2023-02-28T10:14:34;103058.53;;;4.19;54.63
61119;BME280;51448;51.660;5.824;2023-02-28T10:17:12;103057.06;;;4.27;53.73
61119;BME280;51448;51.660;5.824;2023-02-28T10:20:07;103047.72;;;4.34;52.57
61119;BME280;51448;51.660;5.824;2023-02-28T10:22:53;103056.47;;;4.36;52.39
61119;BME280;51448;51.660;5.824;2023-02-28T10:25:36;103060.88;;;4.38;53.47
61119;BME280;51448;51.660;5.824;2023-02-28T10:28:13;103052.34;;;4.42;52.79
61119;BME280;51448;51.660;5.824;2023-02-28T10:30:47;103061.28;;;4.49;52.82
61119;BME280;51448;51.660;5.824;2023-02-28T10:33:23;103059.75;;;4.56;52.68
61119;BME280;51448;51.660;5.824;2023-02-28T10:35:53;103049.50;;;4.62;53.20
61119;BME280;51448;51.660;5.824;2023-02-28T10:38:32;103044.56;;;4.70;51.23
61119;BME280;51448;51.660;5.824;2023-02-28T10:41:33;103055.84;;;4.70;51.60
61119;BME280;51448;51.660;5.824;2023-02-28T10:44:33;103050.59;;;4.69;51.60
61119;BME280;51448;51.660;5.824;2023-02-28T10:47:00;103047.28;;;4.74;52.44
61119;BME280;51448;51.660;5.824;2023-02-28T10:49:29;103048.41;;;4.82;51.44
61119;BME280;51448;51.660;5.824;2023-02-28T10:52:00;103045.06;;;4.87;50.26
61119;BME280;51448;51.660;5.824;2023-02-28T10:54:32;103038.00;;;4.82;51.31
61119;BME280;51448;51.660;5.824;2023-02-28T10:57:19;103045.88;;;4.86;50.96
61119;BME280;51448;51.660;5.824;2023-02-28T11:00:31;103037.31;;;4.90;50.41
61119;BME280;51448;51.660;5.824;2023-02-28T11:02:59;103042.53;;;4.90;50.37
61119;BME280;51448;51.660;5.824;2023-02-28T11:05:30;103036.56;;;4.94;50.03
61119;BME280;51448;51.660;5.824;2023-02-28T11:08:15;103045.44;;;4.99;50.36
61119;BME280;51448;51.660;5.824;2023-02-28T11:10:57;103032.63;;;5.07;51.04
61119;BME280;51448;51.660;5.824;2023-02-28T11:13:33;103027.78;;;5.19;51.60
61119;BME280;51448;51.660;5.824;2023-02-28T11:16:09;103029.09;;;5.35;51.84
61119;BME280;51448;51.660;5.824;2023-02-28T11:18:54;103019.06;;;5.49;49.61
61119;BME280;51448;51.660;5.824;2023-02-28T11:21:32;103017.25;;;5.46;48.12
61119;BME280;51448;51.660;5.824;2023-02-28T11:26:43;103023.97;;;5.38;49.77
61119;BME280;51448;51.660;5.824;2023-02-28T11:29:29;103013.72;;;5.44;49.38
61119;BME280;51448;51.660;5.824;2023-02-28T11:35:00;103014.09;;;5.58;49.03
61119;BME280;51448;51.660;5.824;2023-02-28T11:37:32;103001.94;;;5.58;48.63
61119;BME280;51448;51.660;5.824;2023-02-28T11:40:01;103016.88;;;5.64;48.56
61119;BME280;51448;51.660;5.824;2023-02-28T11:45:55;103006.44;;;5.65;47.75
61119;BME280;51448;51.660;5.824;2023-02-28T11:48:33;103004.66;;;5.63;46.43
61119;BME280;51448;51.660;5.824;2023-02-28T11:51:33;103010.59;;;5.57;47.63
61119;BME280;51448;51.660;5.824;2023-02-28T12:01:26;103005.09;;;5.80;48.66
61119;BME280;51448;51.660;5.824;2023-02-28T12:04:21;103001.13;;;5.94;47.99
61119;BME280;51448;51.660;5.824;2023-02-28T12:06:58;102991.78;;;6.02;48.93
61119;BME280;51448;51.660;5.824;2023-02-28T12:10:03;102990.28;;;6.12;48.02
61119;BME280;51448;51.660;5.824;2023-02-28T12:13:15;102994.63;;;6.12;48.51
61119;BME280;51448;51.660;5.824;2023-02-28T12:19:24;102986.84;;;6.15;46.42
61119;BME280;51448;51.660;5.824;2023-02-28T12:22:35;102963.34;;;6.15;46.71
61119;BME280;51448;51.660;5.824;2023-02-28T12:25:22;102969.53;;;6.18;45.72
61119;BME280;51448;51.660;5.824;2023-02-28T12:28:03;102975.50;;;6.13;46.70
61119;BME280;51448;51.660;5.824;2023-02-28T12:30:34;102971.16;;;6.13;46.32
61119;BME280;51448;51.660;5.824;2023-02-28T12:33:08;102964.13;;;6.11;46.54
61119;BME280;51448;51.660;5.824;2023-02-28T12:35:59;102964.97;;;6.10;44.97
61119;BME280;51448;51.660;5.824;2023-02-28T12:38:45;102963.88;;;6.00;44.70
61119;BME280;51448;51.660;5.824;2023-02-28T12:41:40;102963.63;;;5.91;45.06
61119;BME280;51448;51.660;5.824;2023-02-28T12:44:36;102966.25;;;5.92;46.63
61119;BME280;51448;51.660;5.824;2023-02-28T12:47:19;102955.22;;;6.02;46.67
61119;BME280;51448;51.660;5.824;2023-02-28T12:50:02;102945.91;;;6.14;47.00
61119;BME280;51448;51.660;5.824;2023-02-28T12:53:01;102943.59;;;6.26;45.79
61119;BME280;51448;51.660;5.824;2023-02-28T12:55:50;102948.72;;;6.23;45.51
61119;BME280;51448;51.660;5.824;2023-02-28T12:58:41;102942.72;;;6.26;45.63
61119;BME280;51448;51.660;5.824;2023-02-28T13:01:26;102939.25;;;6.27;46.64
61119;BME280;51448;51.660;5.824;2023-02-28T13:04:43;102927.25;;;6.35;46.56
61119;BME280;51448;51.660;5.824;2023-02-28T13:07:29;102926.53;;;6.42;45.81
61119;BME280;51448;51.660;5.824;2023-02-28T13:10:21;102923.06;;;6.43;45.58
61119;BME280;51448;51.660;5.824;2023-02-28T13:12:51;102925.63;;;6.41;44.48
61119;BME280;51448;51.660;5.824;2023-02-28T13:15:25;102920.28;;;6.35;44.48
61119;BME280;51448;51.660;5.824;2023-02-28T13:17:58;102910.63;;;6.33;44.34
61119;BME280;51448;51.660;5.824;2023-02-28T13:20:31;102912.38;;;6.32;45.53
61119;BME280;51448;51.660;5.824;2023-02-28T13:23:02;102903.75;;;6.36;45.68
61119;BME280;51448;51.660;5.824;2023-02-28T13:28:08;102912.69;;;6.46;45.54
61119;BME280;51448;51.660;5.824;2023-02-28T13:33:35;102908.41;;;6.50;45.72
61119;BME280;51448;51.660;5.824;2023-02-28T13:36:25;102918.06;;;6.52;45.61
61119;BME280;51448;51.660;5.824;2023-02-28T13:39:44;102913.63;;;6.50;45.13
61119;BME280;51448;51.660;5.824;2023-02-28T13:45:21;102907.44;;;6.44;45.33
61119;BME280;51448;51.660;5.824;2023-02-28T13:50:35;102905.81;;;6.51;45.57
61119;BME280;51448;51.660;5.824;2023-02-28T13:56:04;102902.66;;;6.66;46.08
61119;BME280;51448;51.660;5.824;2023-02-28T14:01:56;102908.78;;;6.68;44.84
61119;BME280;51448;51.660;5.824;2023-02-28T14:04:57;102903.50;;;6.65;44.23
61119;BME280;51448;51.660;5.824;2023-02-28T14:07:44;102896.47;;;6.61;44.10
61119;BME280;51448;51.660;5.824;2023-02-28T14:15:46;102903.38;;;6.59;44.20
61119;BME280;51448;51.660;5.824;2023-02-28T14:18:25;102886.81;;;6.60;44.77
61119;BME280;51448;51.660;5.824;2023-02-28T14:21:11;102892.97;;;6.62;43.74
61119;BME280;51448;51.660;5.824;2023-02-28T14:30:02;102886.78;;;6.57;44.90
61119;BME280;51448;51.660;5.824;2023-02-28T14:33:01;102891.22;;;6.61;44.58
61119;BME280;51448;51.660;5.824;2023-02-28T14:36:06;102886.13;;;6.67;45.74
61119;BME280;51448;51.660;5.824;2023-02-28T14:38:45;102889.78;;;6.75;45.54
61119;BME280;51448;51.660;5.824;2023-02-28T14:41:30;102885.47;;;6.77;44.24
61119;BME280;51448;51.660;5.824;2023-02-28T14:46:45;102894.94;;;6.72;45.02
61119;BME280;51448;51.660;5.824;2023-02-28T14:49:22;102884.59;;;6.77;45.26
61119;BME280;51448;51.660;5.824;2023-02-28T14:54:46;102885.84;;;6.96;44.96
61119;BME280;51448;51.660;5.824;2023-02-28T14:57:32;102879.72;;;6.97;44.48
61119;BME280;51448;51.660;5.824;2023-02-28T15:00:16;102881.44;;;6.95;44.86